Time;durP1;ratioP1;P1;durP2;ratioP2;P2;SDS_P1;SDS_P2;PMS_P1;PMS_P2;Temp;Humidity;BMP_temperature;BMP_pressure;BME280_temperature;BME280_humidity;BME280_pressure;Samples;Min_cycle;Max_cycle;Signal;HPM_P1;HPM_P2
2024/01/14 00:01:58;;;;;;;0.10;0.10;;;-0.60;99.90;;;;;;5028234;28;20790;-84
2024/01/14 00:04:24;;;;;;;0.35;0.35;;;-0.50;99.90;;;;;;5032851;28;20036;-84
2024/01/14 00:06:50;;;;;;;0.10;0.10;;;-0.50;99.90;;;;;;5032119;28;20778;-84
2024/01/14 00:09:16;;;;;;;0.10;0.10;;;-0.50;99.90;;;;;;5024041;28;20053;-86
2024/01/14 00:11:42;;;;;;;0.00;0.00;;;-0.40;99.90;;;;;;5023721;28;20267;-84
2024/01/14 00:14:08;;;;;;;0.10;0.10;;;-0.50;99.90;;;;;;5025829;28;20025;-84
2024/01/14 00:16:34;;;;;;;0.10;0.10;;;-0.50;99.90;;;;;;5032844;28;20316;-83
2024/01/14 00:19:04;;;;;;;0.10;0.10;;;-0.50;99.90;;;;;;5024611;28;20470;-84
2024/01/14 00:21:30;;;;;;;0.00;0.00;;;-0.60;99.90;;;;;;5015364;28;20071;-86
2024/01/14 00:23:56;;;;;;;0.10;0.10;;;-0.80;99.90;;;;;;5022027;28;20033;-85
2024/01/14 00:26:24;;;;;;;0.77;0.77;;;-0.70;99.90;;;;;;5026390;28;20091;-85
2024/01/14 00:28:52;;;;;;;0.20;0.20;;;-0.70;99.90;;;;;;5025453;28;20037;-88
2024/01/14 00:31:18;;;;;;;0.65;0.65;;;-0.70;99.90;;;;;;5020374;28;20096;-84
2024/01/14 00:33:43;;;;;;;10.30;1.80;;;-0.70;99.90;;;;;;5028524;28;20064;-86
2024/01/14 00:36:09;;;;;;;0.77;0.77;;;-0.70;99.90;;;;;;5038752;28;20640;-88
2024/01/14 00:38:35;;;;;;;0.20;0.20;;;-0.60;99.90;;;;;;5035006;28;20102;-88
2024/01/14 00:41:00;;;;;;;0.05;0.05;;;-0.60;99.90;;;;;;5019427;28;20060;-89
2024/01/14 00:43:27;;;;;;;0.10;0.10;;;-0.60;99.90;;;;;;5025851;28;20029;-90
2024/01/14 00:45:53;;;;;;;0.47;0.47;;;-0.60;99.90;;;;;;5031254;28;20025;-88
2024/01/14 00:48:19;;;;;;;0.03;0.03;;;-0.50;99.90;;;;;;5022693;28;20042;-88
2024/01/14 00:50:44;;;;;;;0.10;0.10;;;-0.50;99.90;;;;;;5038627;28;20315;-90
2024/01/14 00:53:10;;;;;;;0.10;0.10;;;-0.50;99.90;;;;;;5039993;28;20112;-87
2024/01/14 00:55:37;;;;;;;0.10;0.10;;;-0.60;99.90;;;;;;5030117;28;20033;-90
2024/01/14 00:58:03;;;;;;;0.10;0.10;;;-0.60;99.90;;;;;;5031620;28;20056;-89
2024/01/14 01:00:29;;;;;;;0.10;0.10;;;-0.60;99.90;;;;;;5030076;28;20034;-89
2024/01/14 01:02:57;;;;;;;0.10;0.10;;;-0.50;99.90;;;;;;5032758;28;20500;-86
2024/01/14 01:05:23;;;;;;;0.10;0.10;;;-0.60;99.90;;;;;;5035012;28;20059;-86
2024/01/14 01:07:49;;;;;;;0.10;0.10;;;-0.50;99.90;;;;;;5028726;28;20029;-86
2024/01/14 01:10:15;;;;;;;0.10;0.10;;;-0.60;99.90;;;;;;5025760;28;20168;-85
2024/01/14 01:12:41;;;;;;;0.10;0.10;;;-0.60;99.90;;;;;;5030327;28;20786;-86
2024/01/14 01:15:07;;;;;;;0.10;0.10;;;-0.60;99.90;;;;;;5023665;28;20040;-85
2024/01/14 01:17:33;;;;;;;0.10;0.10;;;-0.60;99.90;;;;;;5023169;28;20033;-84
2024/01/14 01:19:59;;;;;;;0.10;0.10;;;-0.50;99.90;;;;;;5025045;28;20079;-87
2024/01/14 01:22:25;;;;;;;0.10;0.10;;;-0.40;99.90;;;;;;5025515;28;20393;-83
2024/01/14 01:24:51;;;;;;;0.10;0.10;;;-0.40;99.90;;;;;;5027203;28;20029;-85
2024/01/14 01:27:16;;;;;;;0.10;0.10;;;-0.50;99.90;;;;;;5022153;28;20037;-84
2024/01/14 01:29:43;;;;;;;0.05;0.05;;;-0.60;99.90;;;;;;5018483;28;20030;-85
2024/01/14 01:32:09;;;;;;;0.22;0.22;;;-0.60;99.90;;;;;;5026076;28;20029;-83
2024/01/14 01:34:36;;;;;;;0.17;0.17;;;-0.50;99.90;;;;;;5029881;28;20574;-86
2024/01/14 01:37:02;;;;;;;0.43;0.43;;;-0.50;99.90;;;;;;5027237;28;20405;-84
2024/01/14 01:39:28;;;;;;;0.10;0.10;;;-0.50;99.90;;;;;;5032177;28;20037;-84
2024/01/14 01:41:53;;;;;;;0.10;0.10;;;-0.70;99.90;;;;;;5016786;28;20067;-85
2024/01/14 01:44:19;;;;;;;0.20;0.20;;;-0.70;99.90;;;;;;5027755;28;20440;-86
2024/01/14 01:46:46;;;;;;;0.10;0.10;;;-0.70;99.90;;;;;;5025302;28;20040;-88
2024/01/14 01:49:12;;;;;;;0.00;0.00;;;-0.60;99.90;;;;;;5026217;28;20060;-84
2024/01/14 01:51:40;;;;;;;0.13;0.13;;;-0.70;99.90;;;;;;5023833;28;20040;-85
2024/01/14 01:54:08;;;;;;;0.10;0.10;;;-0.60;99.90;;;;;;5041157;28;20085;-86
2024/01/14 01:56:34;;;;;;;0.00;0.00;;;-0.70;99.90;;;;;;5027700;28;20048;-84
2024/01/14 01:59:00;;;;;;;0.35;0.35;;;-0.60;99.90;;;;;;5018008;28;20033;-83
2024/01/14 02:01:26;;;;;;;0.00;0.00;;;-0.50;99.90;;;;;;5021638;28;20113;-86
2024/01/14 02:03:53;;;;;;;0.08;0.08;;;-0.50;99.90;;;;;;5026554;28;20520;-86
2024/01/14 02:06:20;;;;;;;0.10;0.10;;;-0.30;99.90;;;;;;5020642;28;20018;-88
2024/01/14 02:08:46;;;;;;;;;;;-0.30;99.90;;;;;;5035474;28;20080;-85
2024/01/14 02:11:12;;;;;;;0.10;0.10;;;-0.20;99.90;;;;;;5023612;28;20315;-84
2024/01/14 02:13:38;;;;;;;0.10;0.10;;;-0.20;99.90;;;;;;5020287;28;20465;-84
2024/01/14 02:16:04;;;;;;;0.10;0.10;;;-0.10;99.90;;;;;;5022974;28;20037;-84
2024/01/14 02:18:30;;;;;;;0.10;0.10;;;0.00;99.90;;;;;;5017620;28;20052;-84
2024/01/14 02:20:57;;;;;;;0.15;0.15;;;-0.10;99.90;;;;;;5024477;28;20029;-85
2024/01/14 02:23:25;;;;;;;1.15;1.10;;;-0.10;99.90;;;;;;5023807;28;20079;-85
2024/01/14 02:25:51;;;;;;;0.10;0.10;;;-0.10;99.90;;;;;;5018943;28;20025;-84
2024/01/14 02:28:20;;;;;;;0.10;0.10;;;-0.20;99.90;;;;;;5028339;28;20767;-87
2024/01/14 02:30:46;;;;;;;0.10;0.10;;;-0.10;99.90;;;;;;5025741;28;20615;-85
2024/01/14 02:33:12;;;;;;;0.10;0.10;;;0.00;99.90;;;;;;5027720;28;20501;-83
2024/01/14 02:35:39;;;;;;;0.10;0.10;;;-0.10;99.90;;;;;;5031297;28;20033;-83
2024/01/14 02:38:06;;;;;;;0.10;0.10;;;-0.20;99.90;;;;;;5034475;28;20518;-83
2024/01/14 02:40:33;;;;;;;0.10;0.10;;;-0.30;99.90;;;;;;5018769;28;20053;-87
2024/01/14 02:42:58;;;;;;;;;;;-0.30;99.90;;;;;;5014723;28;20054;-87
2024/01/14 02:45:24;;;;;;;0.10;0.10;;;-0.40;99.90;;;;;;5030751;28;19912;-88
2024/01/14 02:47:50;;;;;;;0.63;0.63;;;-0.20;99.90;;;;;;5030653;28;20096;-85
2024/01/14 02:50:15;;;;;;;0.10;0.10;;;-0.20;99.90;;;;;;5025935;28;20150;-85
2024/01/14 02:52:41;;;;;;;0.30;0.30;;;-0.20;99.90;;;;;;5040587;28;20061;-84
2024/01/14 02:55:06;;;;;;;0.00;0.00;;;-0.20;99.90;;;;;;5038071;28;20045;-85
2024/01/14 02:57:33;;;;;;;0.43;0.43;;;-0.20;99.90;;;;;;5026290;28;20033;-84
2024/01/14 02:59:58;;;;;;;0.10;0.10;;;-0.10;99.90;;;;;;5026438;28;20159;-83
2024/01/14 03:02:24;;;;;;;0.47;0.47;;;0.00;99.90;;;;;;5023744;28;20630;-83
2024/01/14 03:04:50;;;;;;;0.10;0.10;;;0.10;99.90;;;;;;5017970;28;20087;-84
2024/01/14 03:07:15;;;;;;;0.30;0.30;;;0.10;99.90;;;;;;5022892;28;20068;-84
2024/01/14 03:09:41;;;;;;;0.10;0.10;;;0.20;99.90;;;;;;5021221;28;20034;-85
2024/01/14 03:12:07;;;;;;;0.10;0.10;;;0.20;99.90;;;;;;5052268;28;20064;-85
2024/01/14 03:14:34;;;;;;;0.10;0.10;;;0.20;99.90;;;;;;5031976;28;20032;-85
2024/01/14 03:17:00;;;;;;;0.10;0.10;;;0.10;99.90;;;;;;5031994;28;20057;-85
2024/01/14 03:19:25;;;;;;;0.10;0.10;;;0.20;99.90;;;;;;5038888;28;20057;-88
2024/01/14 03:21:53;;;;;;;0.10;0.10;;;0.20;99.90;;;;;;5019821;28;20026;-87
2024/01/14 03:24:19;;;;;;;0.00;0.00;;;0.20;99.90;;;;;;5032650;28;20025;-87
2024/01/14 03:26:46;;;;;;;0.10;0.10;;;0.30;99.90;;;;;;5025694;28;20521;-85
2024/01/14 03:29:11;;;;;;;0.20;0.20;;;0.30;99.90;;;;;;5023920;28;20488;-88
2024/01/14 03:31:37;;;;;;;0.10;0.10;;;0.30;99.90;;;;;;5027807;28;20040;-87
2024/01/14 03:34:02;;;;;;;0.10;0.10;;;0.30;99.90;;;;;;5031020;28;20479;-85
2024/01/14 03:36:28;;;;;;;0.10;0.10;;;0.40;99.90;;;;;;5036073;28;20036;-83
2024/01/14 03:38:54;;;;;;;0.43;0.43;;;0.50;99.90;;;;;;5030043;28;20036;-85
2024/01/14 03:41:19;;;;;;;0.10;0.10;;;0.70;99.90;;;;;;5029377;28;20397;-86
2024/01/14 03:43:45;;;;;;;0.10;0.10;;;0.70;99.90;;;;;;5032403;28;20472;-85
2024/01/14 03:46:11;;;;;;;0.10;0.10;;;0.50;99.90;;;;;;5026432;28;20033;-89
2024/01/14 03:48:38;;;;;;;0.75;0.75;;;0.30;99.90;;;;;;5031089;28;20521;-86
2024/01/14 03:51:03;;;;;;;0.00;0.00;;;0.30;99.90;;;;;;5040381;28;20025;-85
2024/01/14 03:53:29;;;;;;;0.20;0.20;;;0.30;99.90;;;;;;5031891;28;20029;-85
2024/01/14 03:55:55;;;;;;;0.10;0.10;;;0.30;99.90;;;;;;5020585;28;20041;-85
2024/01/14 03:58:20;;;;;;;0.10;0.10;;;0.30;99.90;;;;;;5026206;28;20186;-85
2024/01/14 04:00:46;;;;;;;0.10;0.10;;;0.30;99.90;;;;;;5038080;28;20050;-84
2024/01/14 04:03:11;;;;;;;0.10;0.10;;;0.30;99.90;;;;;;5030078;28;20026;-84
2024/01/14 04:05:37;;;;;;;0.25;0.25;;;0.40;99.90;;;;;;5017491;28;20393;-84
2024/01/14 04:08:04;;;;;;;0.10;0.10;;;0.50;99.90;;;;;;5028811;28;20103;-83
2024/01/14 04:10:30;;;;;;;0.77;0.77;;;0.60;99.90;;;;;;5019608;28;20037;-83
2024/01/14 04:12:55;;;;;;;0.00;0.00;;;0.60;99.90;;;;;;5025286;28;20037;-85
2024/01/14 04:15:22;;;;;;;0.13;0.13;;;0.80;99.90;;;;;;5024574;28;20042;-84
2024/01/14 04:17:48;;;;;;;0.45;0.45;;;0.80;99.90;;;;;;5030049;28;20108;-84
2024/01/14 04:20:14;;;;;;;2.00;1.90;;;0.70;99.90;;;;;;5027309;28;20052;-84
2024/01/14 04:22:39;;;;;;;0.20;0.20;;;0.70;99.90;;;;;;5028875;28;20555;-83
2024/01/14 04:25:05;;;;;;;0.10;0.10;;;0.70;99.90;;;;;;5020323;28;20036;-83
2024/01/14 04:27:31;;;;;;;0.10;0.10;;;0.60;99.90;;;;;;5028088;28;20496;-86
2024/01/14 04:29:57;;;;;;;0.10;0.10;;;0.60;99.90;;;;;;5028226;28;20128;-85
2024/01/14 04:32:22;;;;;;;0.10;0.10;;;0.60;99.90;;;;;;5030459;28;20076;-89
2024/01/14 04:34:48;;;;;;;0.10;0.10;;;0.60;99.90;;;;;;5027308;28;20045;-86
2024/01/14 04:37:13;;;;;;;0.10;0.10;;;0.70;99.90;;;;;;5030472;28;20075;-86
2024/01/14 04:39:39;;;;;;;0.10;0.10;;;0.70;99.90;;;;;;5035141;28;20474;-85
2024/01/14 04:42:05;;;;;;;0.10;0.10;;;0.70;99.90;;;;;;5037584;28;20083;-87
2024/01/14 04:44:30;;;;;;;1.02;1.02;;;0.80;99.90;;;;;;5018901;28;20485;-87
2024/01/14 04:46:56;;;;;;;0.35;0.35;;;0.90;99.90;;;;;;5018319;28;20025;-86
2024/01/14 04:49:22;;;;;;;0.65;0.63;;;0.40;99.90;;;;;;5018305;28;20026;-86
2024/01/14 04:51:47;;;;;;;0.65;0.65;;;0.30;99.90;;;;;;5022244;28;20030;-86
2024/01/14 04:54:13;;;;;;;0.08;0.08;;;0.20;99.90;;;;;;5035292;28;20021;-86
2024/01/14 04:56:40;;;;;;;0.10;0.10;;;0.20;99.90;;;;;;5025306;28;20139;-87
2024/01/14 04:59:05;;;;;;;0.10;0.10;;;0.30;99.90;;;;;;5031653;28;20030;-85
2024/01/14 05:01:31;;;;;;;0.10;0.10;;;0.20;99.90;;;;;;5024446;28;20511;-87
2024/01/14 05:03:57;;;;;;;0.45;0.45;;;0.00;99.90;;;;;;5035386;28;20017;-83
2024/01/14 05:06:22;;;;;;;0.65;0.65;;;-0.10;99.90;;;;;;5034151;28;20033;-85
2024/01/14 05:08:48;;;;;;;0.10;0.10;;;-0.20;99.90;;;;;;5030658;28;20053;-83
2024/01/14 05:11:14;;;;;;;0.57;0.57;;;-0.20;99.90;;;;;;5020436;28;20064;-84
2024/01/14 05:13:40;;;;;;;0.10;0.10;;;-0.10;99.90;;;;;;5022536;28;20022;-85
2024/01/14 05:16:06;;;;;;;0.10;0.10;;;-0.10;99.90;;;;;;5026367;28;20527;-84
2024/01/14 05:18:31;;;;;;;0.03;0.03;;;0.00;99.90;;;;;;5021254;28;20265;-84
2024/01/14 05:20:57;;;;;;;0.10;0.10;;;0.30;99.90;;;;;;5030122;28;20032;-83
2024/01/14 05:23:23;;;;;;;0.03;0.03;;;0.20;99.90;;;;;;5025265;28;20489;-84
2024/01/14 05:25:49;;;;;;;0.00;0.00;;;0.30;99.90;;;;;;5024156;28;20322;-83
2024/01/14 05:28:14;;;;;;;0.10;0.10;;;0.30;99.90;;;;;;5023176;28;20045;-83
2024/01/14 05:30:40;;;;;;;0.10;0.10;;;0.40;99.90;;;;;;5022386;28;20032;-83
2024/01/14 05:33:06;;;;;;;0.10;0.10;;;0.40;99.90;;;;;;5023743;28;20029;-84
2024/01/14 05:35:31;;;;;;;0.10;0.10;;;0.10;99.90;;;;;;5023425;28;20041;-83
2024/01/14 05:37:57;;;;;;;0.10;0.10;;;0.00;99.90;;;;;;5022507;28;20036;-84
2024/01/14 05:40:23;;;;;;;0.10;0.10;;;0.10;99.90;;;;;;5013043;28;20029;-84
2024/01/14 05:42:49;;;;;;;0.10;0.10;;;0.10;99.90;;;;;;5016857;28;20144;-84
2024/01/14 05:45:15;;;;;;;0.00;0.00;;;0.10;99.90;;;;;;5024759;28;20090;-83
2024/01/14 05:47:41;;;;;;;0.22;0.22;;;0.10;99.90;;;;;;5019330;28;20022;-84
2024/01/14 05:50:07;;;;;;;0.10;0.10;;;0.20;99.90;;;;;;5022649;28;20062;-85
2024/01/14 05:52:33;;;;;;;0.10;0.10;;;0.30;99.90;;;;;;5015630;28;20038;-84
2024/01/14 05:54:59;;;;;;;0.10;0.10;;;0.40;99.90;;;;;;5016239;28;20035;-84
2024/01/14 05:57:24;;;;;;;0.10;0.10;;;0.50;99.90;;;;;;5022512;28;20037;-84
2024/01/14 05:59:50;;;;;;;0.10;0.10;;;0.40;99.90;;;;;;5022130;28;20025;-83
2024/01/14 06:02:16;;;;;;;0.10;0.10;;;0.50;99.80;;;;;;5038543;28;20825;-85
2024/01/14 06:04:42;;;;;;;0.10;0.10;;;0.60;99.30;;;;;;5020587;28;20140;-85
2024/01/14 06:07:09;;;;;;;0.10;0.10;;;0.60;99.00;;;;;;5014497;28;20355;-83
2024/01/14 06:09:34;;;;;;;0.10;0.10;;;0.70;98.00;;;;;;5020580;28;20487;-85
2024/01/14 06:12:00;;;;;;;0.10;0.10;;;0.70;97.80;;;;;;5034007;28;20029;-85
2024/01/14 06:14:26;;;;;;;0.10;0.10;;;0.70;97.50;;;;;;5012733;28;20091;-87
2024/01/14 06:16:51;;;;;;;0.85;0.85;;;0.80;97.10;;;;;;5025535;28;20041;-88
2024/01/14 06:19:17;;;;;;;0.75;0.75;;;0.80;97.70;;;;;;5027104;28;20037;-88
2024/01/14 06:21:43;;;;;;;0.10;0.10;;;0.80;98.50;;;;;;5025219;28;20064;-88
2024/01/14 06:24:12;;;;;;;0.10;0.10;;;0.80;98.50;;;;;;5020743;28;20037;-89
2024/01/14 06:26:38;;;;;;;0.10;0.10;;;0.90;98.60;;;;;;5029113;28;20079;-86
2024/01/14 06:29:03;;;;;;;0.10;0.10;;;0.90;98.40;;;;;;5032776;28;20025;-89
2024/01/14 06:31:29;;;;;;;0.17;0.17;;;0.90;98.80;;;;;;5035163;28;20034;-84
2024/01/14 06:33:55;;;;;;;0.10;0.10;;;0.90;99.00;;;;;;5023170;28;20048;-84
2024/01/14 06:36:21;;;;;;;0.10;0.10;;;0.80;98.90;;;;;;5023386;28;20080;-83
2024/01/14 06:38:47;;;;;;;0.10;0.10;;;0.80;99.30;;;;;;5024128;28;20493;-86
2024/01/14 06:41:19;;;;;;;0.10;0.10;;;0.70;99.90;;;;;;5013152;28;20516;-80
2024/01/14 06:43:46;;;;;;;0.10;0.10;;;0.70;99.50;;;;;;5006691;28;20038;-83
2024/01/14 06:46:13;;;;;;;0.10;0.10;;;0.60;99.90;;;;;;5014913;28;20917;-83
2024/01/14 06:48:39;;;;;;;0.15;0.15;;;0.50;99.90;;;;;;5019938;28;20025;-87
2024/01/14 06:51:04;;;;;;;0.85;0.85;;;0.50;99.90;;;;;;5013223;28;20037;-86
2024/01/14 06:53:30;;;;;;;0.15;0.15;;;0.40;99.90;;;;;;5053438;28;20026;-86
2024/01/14 06:55:56;;;;;;;0.10;0.10;;;0.50;99.90;;;;;;5032428;28;20785;-86
2024/01/14 06:58:22;;;;;;;0.77;0.77;;;0.50;99.90;;;;;;5029167;28;20507;-94
2024/01/14 07:00:47;;;;;;;0.10;0.10;;;0.50;99.90;;;;;;5013682;28;20030;-86
2024/01/14 07:03:14;;;;;;;0.13;0.13;;;0.50;99.90;;;;;;5033627;28;20082;-88
2024/01/14 07:05:39;;;;;;;0.10;0.10;;;0.40;99.90;;;;;;5021508;28;20041;-86
2024/01/14 07:08:05;;;;;;;0.10;0.10;;;0.50;99.90;;;;;;5022559;28;20033;-87
2024/01/14 07:10:32;;;;;;;0.10;0.10;;;0.50;99.90;;;;;;5029376;28;20396;-84
2024/01/14 07:12:57;;;;;;;2.17;2.03;;;0.50;99.90;;;;;;5029761;28;20021;-84
2024/01/14 07:15:23;;;;;;;0.10;0.10;;;0.50;99.90;;;;;;5016993;28;20066;-84
2024/01/14 07:17:49;;;;;;;0.10;0.10;;;0.60;99.90;;;;;;5020177;28;20077;-86
2024/01/14 07:20:15;;;;;;;1.50;0.93;;;0.70;99.90;;;;;;5017475;28;20687;-83
2024/01/14 07:22:41;;;;;;;0.37;0.37;;;0.80;99.30;;;;;;5023720;28;20033;-86
2024/01/14 07:25:08;;;;;;;0.10;0.10;;;0.80;99.10;;;;;;5020798;28;20026;-84
2024/01/14 07:27:35;;;;;;;0.10;0.10;;;0.80;98.50;;;;;;5017729;28;20067;-84
2024/01/14 07:30:01;;;;;;;;;;;0.80;99.00;;;;;;5023583;28;20120;-85
2024/01/14 07:32:26;;;;;;;0.10;0.10;;;0.90;98.40;;;;;;5025318;28;20422;-84
2024/01/14 07:34:52;;;;;;;0.50;0.50;;;1.00;97.50;;;;;;5025148;28;20048;-88
2024/01/14 07:37:18;;;;;;;0.10;0.10;;;1.10;96.70;;;;;;5022982;28;20028;-89
2024/01/14 07:39:43;;;;;;;0.10;0.10;;;1.20;96.00;;;;;;5029434;28;20060;-84
2024/01/14 07:42:10;;;;;;;0.25;0.25;;;1.30;95.80;;;;;;5023215;28;20069;-84
2024/01/14 07:44:36;;;;;;;0.10;0.10;;;1.20;95.80;;;;;;5027275;28;20055;-84
2024/01/14 07:47:02;;;;;;;0.10;0.10;;;1.10;96.90;;;;;;5025410;28;20485;-85
2024/01/14 07:49:27;;;;;;;0.10;0.10;;;1.20;96.80;;;;;;5030341;28;20037;-85
2024/01/14 07:51:53;;;;;;;0.10;0.10;;;1.30;96.20;;;;;;5027585;28;20029;-85
2024/01/14 07:54:19;;;;;;;0.10;0.10;;;1.40;95.70;;;;;;5027119;28;20040;-82
2024/01/14 07:56:45;;;;;;;0.10;0.10;;;1.50;95.60;;;;;;5027416;28;20038;-82
2024/01/14 07:59:10;;;;;;;0.10;0.10;;;1.40;95.30;;;;;;5030903;28;20068;-83
2024/01/14 08:01:37;;;;;;;0.10;0.10;;;1.30;96.00;;;;;;5030938;28;20026;-85
2024/01/14 08:04:03;;;;;;;0.10;0.10;;;1.30;96.00;;;;;;5028531;28;20051;-84
2024/01/14 08:06:29;;;;;;;0.50;0.50;;;1.20;96.40;;;;;;5027187;28;20707;-82
2024/01/14 08:08:55;;;;;;;0.10;0.10;;;1.10;96.40;;;;;;5026521;28;20030;-84
2024/01/14 08:11:21;;;;;;;0.10;0.10;;;1.20;96.50;;;;;;5034117;28;20041;-82
2024/01/14 08:13:47;;;;;;;0.10;0.10;;;1.20;96.60;;;;;;5021730;28;20380;-80
2024/01/14 08:16:14;;;;;;;0.10;0.10;;;1.30;96.60;;;;;;5028626;28;20408;-83
2024/01/14 08:18:40;;;;;;;0.10;0.10;;;1.20;97.60;;;;;;5031089;28;20065;-81
2024/01/14 08:21:10;;;;;;;0.10;0.10;;;1.20;98.10;;;;;;5021422;28;20022;-83
2024/01/14 08:23:36;;;;;;;0.10;0.10;;;1.40;97.50;;;;;;5021610;28;20101;-82
2024/01/14 08:26:03;;;;;;;0.10;0.10;;;1.40;96.80;;;;;;5027283;28;20104;-80
2024/01/14 08:28:31;;;;;;;0.10;0.10;;;1.60;96.60;;;;;;5026318;28;20037;-82
2024/01/14 08:30:56;;;;;;;0.10;0.10;;;1.80;96.10;;;;;;5030897;28;20028;-84
2024/01/14 08:33:22;;;;;;;0.10;0.10;;;1.90;95.00;;;;;;5030889;28;20026;-83
2024/01/14 08:35:48;;;;;;;0.10;0.10;;;1.90;94.50;;;;;;5021055;28;20045;-84
2024/01/14 08:38:13;;;;;;;0.10;0.10;;;2.00;94.50;;;;;;5029175;28;20022;-83
2024/01/14 08:40:39;;;;;;;0.10;0.10;;;1.90;94.60;;;;;;5026764;28;20485;-84
2024/01/14 08:43:04;;;;;;;0.10;0.10;;;1.80;95.20;;;;;;5026022;28;20029;-83
2024/01/14 08:45:30;;;;;;;0.63;0.63;;;2.00;95.50;;;;;;5024338;28;20105;-81
2024/01/14 08:47:56;;;;;;;0.10;0.10;;;1.90;94.90;;;;;;5022929;28;20048;-85
2024/01/14 08:50:22;;;;;;;0.10;0.10;;;1.80;96.20;;;;;;5015010;28;20526;-81
2024/01/14 08:52:47;;;;;;;0.10;0.10;;;1.90;96.10;;;;;;5023089;28;20852;-83
2024/01/14 08:55:13;;;;;;;0.10;0.10;;;2.00;95.20;;;;;;5020655;28;20076;-84
2024/01/14 08:57:39;;;;;;;0.10;0.10;;;2.30;94.70;;;;;;5016501;28;20112;-83
2024/01/14 09:00:06;;;;;;;0.10;0.10;;;2.70;94.10;;;;;;5022149;28;20037;-85
2024/01/14 09:02:32;;;;;;;0.10;0.10;;;2.90;93.20;;;;;;5014788;28;20022;-85
2024/01/14 09:04:58;;;;;;;0.10;0.10;;;2.90;92.50;;;;;;5021231;28;20056;-78
2024/01/14 09:07:26;;;;;;;0.10;0.10;;;2.90;92.40;;;;;;5011973;28;20036;-78
2024/01/14 09:09:51;;;;;;;0.10;0.10;;;3.00;92.10;;;;;;5022848;28;20077;-81
2024/01/14 09:12:17;;;;;;;0.10;0.10;;;3.40;92.00;;;;;;5024527;28;20025;-79
2024/01/14 09:14:43;;;;;;;0.10;0.10;;;3.70;91.10;;;;;;5022149;28;20469;-77
2024/01/14 09:17:10;;;;;;;0.10;0.10;;;4.10;91.10;;;;;;5022533;28;20029;-79
2024/01/14 09:19:35;;;;;;;0.10;0.10;;;4.10;90.20;;;;;;5016110;28;20033;-79
2024/01/14 09:22:01;;;;;;;0.10;0.10;;;4.30;90.20;;;;;;5016022;28;20033;-79
2024/01/14 09:24:27;;;;;;;0.10;0.10;;;4.40;89.80;;;;;;5016190;28;20021;-78
2024/01/14 09:26:52;;;;;;;0.15;0.15;;;4.30;87.60;;;;;;5011769;28;20058;-79
2024/01/14 09:29:18;;;;;;;0.10;0.10;;;4.40;88.10;;;;;;5015062;28;20018;-78
2024/01/14 09:31:43;;;;;;;0.10;0.10;;;4.70;88.20;;;;;;5009329;28;20100;-79
2024/01/14 09:34:09;;;;;;;0.17;0.17;;;4.90;86.70;;;;;;5004010;28;20532;-78
2024/01/14 09:36:37;;;;;;;0.10;0.10;;;4.70;86.40;;;;;;5003642;28;20061;-78
2024/01/14 09:39:03;;;;;;;0.10;0.10;;;4.50;85.50;;;;;;5019025;28;20107;-78
2024/01/14 09:41:31;;;;;;;0.20;0.20;;;4.60;87.10;;;;;;5004507;28;20552;-78
2024/01/14 09:43:57;;;;;;;0.10;0.10;;;4.40;87.20;;;;;;5010139;28;20025;-78
2024/01/14 09:46:24;;;;;;;0.10;0.10;;;4.30;88.90;;;;;;5020899;28;20060;-78
2024/01/14 09:48:51;;;;;;;0.10;0.10;;;4.70;89.10;;;;;;5015511;28;20104;-78
2024/01/14 09:51:18;;;;;;;0.10;0.10;;;5.10;87.70;;;;;;5006706;28;20030;-78
2024/01/14 09:53:45;;;;;;;;;;;4.80;89.10;;;;;;5023442;28;20025;-78
2024/01/14 09:56:13;;;;;;;0.10;0.10;;;4.80;88.60;;;;;;5013242;28;19917;-78
2024/01/14 09:58:40;;;;;;;0.10;0.10;;;4.70;88.70;;;;;;5018117;28;20192;-79
2024/01/14 10:01:08;;;;;;;;;;;4.70;88.80;;;;;;5009191;28;20025;-79
2024/01/14 10:03:34;;;;;;;0.20;0.20;;;4.70;87.90;;;;;;5014034;28;20694;-78
2024/01/14 10:06:01;;;;;;;0.10;0.10;;;4.80;87.90;;;;;;5014644;28;20029;-78
2024/01/14 10:08:27;;;;;;;0.10;0.10;;;4.50;86.90;;;;;;5015218;28;20103;-78
2024/01/14 10:10:53;;;;;;;0.10;0.10;;;4.80;87.60;;;;;;5015289;28;20036;-78
2024/01/14 10:13:22;;;;;;;0.10;0.10;;;4.90;88.70;;;;;;5012929;28;20397;-79
2024/01/14 10:15:50;;;;;;;0.10;0.10;;;4.80;86.50;;;;;;5017489;28;20040;-78
2024/01/14 10:18:19;;;;;;;0.22;0.22;;;4.90;87.70;;;;;;5019215;28;20112;-79
2024/01/14 10:20:46;;;;;;;0.10;0.10;;;5.20;85.30;;;;;;5019081;28;20037;-78
2024/01/14 10:23:11;;;;;;;0.10;0.10;;;5.50;85.10;;;;;;5016100;28;20396;-79
2024/01/14 10:25:37;;;;;;;0.00;0.00;;;5.60;85.50;;;;;;5014165;28;20048;-79
2024/01/14 10:28:07;;;;;;;0.10;0.10;;;5.40;84.40;;;;;;5016686;28;20025;-78
2024/01/14 10:30:32;;;;;;;0.10;0.10;;;5.40;85.20;;;;;;5019649;28;20037;-79
2024/01/14 10:32:58;;;;;;;0.00;0.00;;;5.50;84.40;;;;;;5002842;28;20026;-79
2024/01/14 10:35:24;;;;;;;1.00;1.00;;;5.40;83.60;;;;;;5016467;28;20476;-79
2024/01/14 10:37:51;;;;;;;0.10;0.10;;;5.40;82.60;;;;;;5012833;28;20511;-79
2024/01/14 10:40:17;;;;;;;0.10;0.10;;;5.40;85.00;;;;;;5021607;28;20064;-82
2024/01/14 10:42:44;;;;;;;0.10;0.10;;;5.50;84.20;;;;;;5008453;28;20054;-78
2024/01/14 10:45:10;;;;;;;0.10;0.10;;;5.40;85.20;;;;;;5018677;28;20029;-79
2024/01/14 10:47:36;;;;;;;0.30;0.30;;;5.40;83.60;;;;;;5020269;28;20320;-80
2024/01/14 10:50:03;;;;;;;0.10;0.10;;;5.40;84.40;;;;;;5022222;28;20021;-80
2024/01/14 10:52:35;;;;;;;;;;;5.50;83.90;;;;;;5010941;28;20237;-80
2024/01/14 10:55:40;;;;;;;0.10;0.10;;;5.50;82.40;;;;;;5019981;28;19921;-80
2024/01/14 10:58:07;;;;;;;3.60;2.47;;;5.70;82.30;;;;;;5022706;28;20664;-81
2024/01/14 11:00:36;;;;;;;0.10;0.10;;;5.70;81.10;;;;;;5028546;28;20655;-78
2024/01/14 11:03:09;;;;;;;0.57;0.57;;;5.90;81.20;;;;;;5021002;28;20091;-75
2024/01/14 11:05:36;;;;;;;0.10;0.10;;;6.00;79.20;;;;;;5033864;28;20071;-78
2024/01/14 11:08:03;;;;;;;0.10;0.10;;;6.20;78.90;;;;;;5023930;28;20400;-79
2024/01/14 11:10:30;;;;;;;;;;;6.30;77.20;;;;;;5028900;28;20578;-81
2024/01/14 11:13:16;;;;;;;0.10;0.10;;;6.20;76.70;;;;;;5022692;28;19996;-78
2024/01/14 11:16:02;;;;;;;0.10;0.10;;;6.30;79.30;;;;;;5025772;28;20456;-80
2024/01/14 11:18:36;;;;;;;0.10;0.10;;;6.30;79.90;;;;;;5021759;28;20029;-79
2024/01/14 12:18:40;;;;;;;0.10;0.10;;;7.90;75.50;;;;;;5024191;23;20399;-84
2024/01/14 12:21:06;;;;;;;0.75;0.75;;;8.00;75.20;;;;;;5003040;28;20136;-84
2024/01/14 12:23:32;;;;;;;0.10;0.10;;;8.40;74.70;;;;;;4998852;28;20026;-83
2024/01/14 12:26:04;;;;;;;0.10;0.10;;;8.80;74.80;;;;;;5003832;28;20064;-82
2024/01/14 12:28:30;;;;;;;0.20;0.20;;;9.00;75.60;;;;;;5007005;28;20030;-84
2024/01/14 12:30:57;;;;;;;0.30;0.30;;;9.10;75.40;;;;;;5002413;28;20036;-83
2024/01/14 12:33:23;;;;;;;0.20;0.20;;;9.00;75.50;;;;;;5003184;28;20034;-83
2024/01/14 12:35:49;;;;;;;0.20;0.20;;;9.10;79.50;;;;;;5015267;28;20108;-83
2024/01/14 12:38:14;;;;;;;0.10;0.10;;;9.10;82.00;;;;;;5008335;28;20481;-83
2024/01/14 12:40:40;;;;;;;0.38;0.38;;;9.00;81.20;;;;;;5018711;28;20033;-83
2024/01/14 12:43:07;;;;;;;1.20;1.10;;;9.00;81.00;;;;;;5021573;28;20026;-83
2024/01/14 12:45:33;;;;;;;0.10;0.10;;;9.10;82.50;;;;;;5017844;28;20040;-83
2024/01/14 12:48:04;;;;;;;0.10;0.10;;;9.00;80.70;;;;;;5004567;28;20382;-84
2024/01/14 12:50:33;;;;;;;0.30;0.30;;;9.00;81.30;;;;;;4995141;28;20028;-84
2024/01/14 12:53:05;;;;;;;0.10;0.10;;;9.20;81.10;;;;;;5018611;28;20021;-83
2024/01/14 12:55:31;;;;;;;0.10;0.10;;;9.40;80.00;;;;;;4989055;28;20069;-83
2024/01/14 12:58:00;;;;;;;0.35;0.35;;;9.50;80.50;;;;;;5016061;28;20054;-82
2024/01/14 13:00:27;;;;;;;0.10;0.10;;;9.60;82.30;;;;;;5007122;28;20017;-86
2024/01/14 13:02:53;;;;;;;;;;;9.60;82.80;;;;;;5007550;28;20448;-84
2024/01/14 13:05:19;;;;;;;0.10;0.10;;;9.60;82.80;;;;;;5005318;28;19935;-83
2024/01/14 13:07:45;;;;;;;0.10;0.10;;;9.60;82.00;;;;;;5006847;28;20022;-83
2024/01/14 13:10:11;;;;;;;0.00;0.00;;;9.50;83.90;;;;;;5012452;28;20037;-82
2024/01/14 13:12:36;;;;;;;0.10;0.10;;;9.30;84.20;;;;;;5006256;28;20038;-83
2024/01/14 13:15:03;;;;;;;0.10;0.10;;;9.10;85.90;;;;;;5011092;28;20026;-83
2024/01/14 13:17:29;;;;;;;0.17;0.17;;;9.10;84.70;;;;;;5006883;28;20077;-82
2024/01/14 13:19:55;;;;;;;0.10;0.10;;;9.20;85.60;;;;;;5009856;28;20326;-84
2024/01/14 13:22:21;;;;;;;0.00;0.00;;;9.10;85.20;;;;;;5004234;28;20500;-83
2024/01/14 13:24:47;;;;;;;0.10;0.10;;;9.20;85.60;;;;;;5002792;28;20038;-83
2024/01/14 13:27:13;;;;;;;0.10;0.10;;;9.30;85.00;;;;;;5007319;28;20780;-83
2024/01/14 13:29:41;;;;;;;0.10;0.10;;;9.40;86.30;;;;;;5010592;28;20130;-83
2024/01/14 13:32:07;;;;;;;0.55;0.55;;;9.40;85.60;;;;;;5007666;28;20030;-83
2024/01/14 13:34:33;;;;;;;0.00;0.00;;;9.40;85.60;;;;;;5003011;28;20026;-83
2024/01/14 13:36:59;;;;;;;0.10;0.10;;;9.40;86.10;;;;;;4987009;28;20037;-83
2024/01/14 13:39:24;;;;;;;0.10;0.10;;;9.40;87.70;;;;;;5014609;28;20097;-83
2024/01/14 13:41:50;;;;;;;0.10;0.10;;;9.40;86.20;;;;;;5007529;28;20101;-83
2024/01/14 13:44:16;;;;;;;0.10;0.10;;;9.30;84.50;;;;;;5014537;28;20072;-83
2024/01/14 13:46:42;;;;;;;0.10;0.10;;;9.10;86.10;;;;;;5003472;28;20565;-84
2024/01/14 13:49:08;;;;;;;0.00;0.00;;;8.90;87.20;;;;;;5011398;28;20032;-83
2024/01/14 13:51:34;;;;;;;0.10;0.10;;;8.80;88.80;;;;;;5017162;28;20393;-83